Time;durP1;ratioP1;P1;durP2;ratioP2;P2;SDS_P1;SDS_P2;PMS_P1;PMS_P2;Temp;Humidity;BMP_temperature;BMP_pressure;BME280_temperature;BME280_humidity;BME280_pressure;Samples;Min_cycle;Max_cycle;Signal;HPM_P1;HPM_P2
2023/09/24 00:01:56;;;;;;;2.50;2.20;;;;;;;9.45;92.12;101095.92;105502;1253;69219;-56
2023/09/24 00:04:24;;;;;;;2.80;2.10;;;;;;;9.42;92.04;101100.34;105506;1256;69715;-57
2023/09/24 00:06:53;;;;;;;3.70;2.20;;;;;;;9.45;92.55;101106.58;105500;1255;75128;-57
2023/09/24 00:09:21;;;;;;;3.10;2.40;;;;;;;9.46;92.53;101110.73;105484;1253;83704;-57
2023/09/24 00:11:49;;;;;;;3.50;2.40;;;;;;;9.48;92.67;101114.52;105589;1254;73670;-57
2023/09/24 00:14:18;;;;;;;3.60;2.10;;;;;;;9.46;92.29;101117.88;105502;1252;69180;-56
2023/09/24 00:16:46;;;;;;;4.60;2.50;;;;;;;9.44;92.21;101116.36;105563;1253;69169;-57
2023/09/24 00:19:16;;;;;;;3.40;2.40;;;;;;;9.42;92.20;101120.92;105552;1253;73759;-57
2023/09/24 00:21:46;;;;;;;6.60;2.60;;;;;;;9.39;91.90;101119.41;105558;1253;83326;-57
2023/09/24 00:24:16;;;;;;;6.80;3.00;;;;;;;9.35;91.74;101117.05;105543;1252;74054;-58
2023/09/24 00:26:45;;;;;;;5.30;2.30;;;;;;;9.32;91.93;101113.27;105531;1253;69071;-54
2023/09/24 00:29:13;;;;;;;3.50;2.60;;;;;;;9.28;91.50;101110.39;105555;1252;69074;-57
2023/09/24 00:31:42;;;;;;;3.70;2.60;;;;;;;9.25;91.69;101113.77;105548;1255;72819;-57
2023/09/24 00:34:10;;;;;;;3.60;2.50;;;;;;;9.22;91.81;101117.83;105519;1255;83288;-57
2023/09/24 00:36:39;;;;;;;4.80;2.40;;;;;;;9.20;91.77;101116.32;105616;1256;72689;-57
2023/09/24 00:39:08;;;;;;;3.40;2.60;;;;;;;9.15;91.61;101117.27;105414;1257;69132;-57
2023/09/24 00:41:36;;;;;;;4.10;2.80;;;;;;;9.11;91.52;101115.62;105527;1253;69069;-57
2023/09/24 00:44:05;;;;;;;4.00;2.50;;;;;;;9.07;91.66;101112.38;105695;1255;75099;-57
2023/09/24 00:46:33;;;;;;;6.30;2.80;;;;;;;9.03;91.65;101113.34;105416;1257;83361;-57
2023/09/24 00:49:02;;;;;;;4.50;2.90;;;;;;;9.01;91.84;101111.46;105476;1255;73041;-57
2023/09/24 00:51:30;;;;;;;4.00;2.70;;;;;;;8.99;91.94;101117.25;105583;1257;69195;-57
2023/09/24 00:53:59;;;;;;;3.50;2.60;;;;;;;8.95;91.49;101116.10;105495;1256;69206;-57
2023/09/24 00:56:28;;;;;;;6.50;2.70;;;;;;;8.91;91.68;101120.17;105592;1255;74328;-57
2023/09/24 00:58:57;;;;;;;3.90;2.60;;;;;;;8.86;91.80;101118.01;105597;1253;83404;-57
2023/09/24 01:01:25;;;;;;;5.00;2.70;;;;;;;8.85;92.03;101118.73;105534;1255;72283;-55
2023/09/24 01:03:54;;;;;;;3.50;2.30;;;;;;;8.85;92.18;101115.95;105567;1253;69227;-57
2023/09/24 01:06:23;;;;;;;3.60;2.30;;;;;;;8.82;91.86;101115.81;105541;1253;69157;-57
2023/09/24 01:08:52;;;;;;;3.70;2.40;;;;;;;8.77;91.78;101118.34;105437;1257;74826;-57
2023/09/24 01:11:20;;;;;;;4.50;2.80;;;;;;;8.75;92.36;101124.48;105479;1253;83305;-56
2023/09/24 01:13:49;;;;;;;4.00;2.30;;;;;;;8.77;92.39;101126.70;105492;1253;72611;-57
2023/09/24 01:16:17;;;;;;;4.50;2.80;;;;;;;8.76;92.29;101126.04;105503;1253;69172;-57
2023/09/24 01:18:46;;;;;;;3.80;2.60;;;;;;;8.72;92.21;101127.67;105573;1253;69453;-56
2023/09/24 01:21:17;;;;;;;4.70;2.80;;;;;;;8.68;91.94;101133.85;105563;1255;74906;-57
2023/09/24 01:23:48;;;;;;;6.10;3.10;;;;;;;8.65;92.03;101139.13;105548;1253;82945;-57
2023/09/24 01:26:18;;;;;;;5.10;3.00;;;;;;;8.60;91.80;101143.03;105394;1254;72844;-57
2023/09/24 01:28:47;;;;;;;3.50;2.20;;;;;;;8.55;91.83;101147.12;105491;1252;69167;-57
2023/09/24 01:31:18;;;;;;;4.60;2.60;;;;;;;8.52;92.04;101148.77;105464;1257;69187;-55
2023/09/24 01:33:47;;;;;;;4.60;2.80;;;;;;;8.46;91.80;101154.42;105523;1252;74637;-57
2023/09/24 01:36:19;;;;;;;5.00;2.60;;;;;;;8.46;92.19;101155.11;105437;1253;82447;-57
2023/09/24 01:38:47;;;;;;;6.70;2.60;;;;;;;8.43;92.09;101157.95;105454;1255;73817;-57
2023/09/24 01:41:18;;;;;;;3.90;2.60;;;;;;;8.41;92.15;101160.42;105468;1253;69159;-56
2023/09/24 01:43:46;;;;;;;3.50;2.50;;;;;;;8.36;91.95;101168.48;105509;1253;69123;-56
2023/09/24 01:46:15;;;;;;;4.70;2.80;;;;;;;8.32;91.93;101173.59;105601;1255;73948;-57
2023/09/24 01:48:44;;;;;;;5.00;3.00;;;;;;;8.29;91.98;101178.70;105494;1253;83397;-57
2023/09/24 01:51:12;;;;;;;4.40;2.60;;;;;;;8.24;91.65;101187.45;105603;1253;73670;-57
2023/09/24 01:53:42;;;;;;;3.90;2.70;;;;;;;8.21;91.80;101190.98;105507;1254;69233;-56
2023/09/24 01:56:12;;;;;;;5.50;2.70;;;;;;;8.19;91.99;101194.16;105559;1255;69077;-57
2023/09/24 01:58:42;;;;;;;;;;;;;;;8.19;92.69;101199.89;105556;1255;74013;-57
2023/09/24 02:01:10;;;;;;;4.00;2.30;;;;;;;8.17;92.29;101202.38;105461;1253;81849;-57
2023/09/24 02:03:39;;;;;;;5.10;2.60;;;;;;;8.11;91.97;101202.62;105528;1255;73482;-55
2023/09/24 02:06:08;;;;;;;3.60;2.30;;;;;;;8.08;92.10;101205.45;105574;1255;69193;-57
2023/09/24 02:08:36;;;;;;;4.90;2.60;;;;;;;8.05;92.18;101206.88;105460;1253;69224;-57
2023/09/24 02:11:05;;;;;;;4.00;2.80;;;;;;;8.04;92.40;101210.20;105446;1257;75028;-57
2023/09/24 02:13:33;;;;;;;4.80;2.60;;;;;;;8.03;92.48;101206.38;105379;1254;82679;-57
2023/09/24 02:16:05;;;;;;;3.70;2.80;;;;;;;8.02;92.21;101203.44;105484;1255;73769;-57
2023/09/24 02:18:34;;;;;;;7.30;3.00;;;;;;;7.99;92.46;101205.77;105491;1253;69178;-56
2023/09/24 02:21:12;;;;;;;3.80;2.70;;;;;;;7.96;92.52;101202.65;105382;1253;69192;-57
2023/09/24 02:23:41;;;;;;;4.90;2.50;;;;;;;7.96;92.73;101205.96;105489;1253;74997;-57
2023/09/24 02:26:13;;;;;;;6.90;3.20;;;;;;;7.97;93.07;101210.98;105461;1254;81694;-57
2023/09/24 02:28:43;;;;;;;3.70;2.60;;;;;;;7.97;92.89;101215.86;105448;1257;72840;-57
2023/09/24 02:31:12;;;;;;;6.10;2.40;;;;;;;7.95;92.80;101220.25;105763;1254;69124;-57
2023/09/24 02:33:40;;;;;;;5.50;3.20;;;;;;;7.94;92.72;101225.31;105792;1254;69068;-57
2023/09/24 02:36:09;;;;;;;6.20;3.40;;;;;;;7.93;92.75;101227.92;105657;1254;74676;-57
2023/09/24 02:38:37;;;;;;;4.50;2.80;;;;;;;7.93;92.92;101230.90;105426;1257;83177;-54
2023/09/24 02:41:06;;;;;;;3.60;3.20;;;;;;;7.91;92.97;101231.08;105398;1256;73969;-57
2023/09/24 02:43:34;;;;;;;3.60;2.90;;;;;;;7.90;93.05;101234.05;105705;1252;69082;-57
2023/09/24 02:46:05;;;;;;;4.20;3.30;;;;;;;7.91;93.14;101239.80;105522;1255;69185;-57
2023/09/24 02:48:35;;;;;;;3.30;2.50;;;;;;;7.90;93.14;101249.73;105607;1254;73810;-57
2023/09/24 02:51:08;;;;;;;3.80;2.60;;;;;;;7.88;93.39;101253.56;105575;1254;83699;-57
2023/09/24 02:53:38;;;;;;;5.30;3.30;;;;;;;7.87;93.54;101252.36;105567;1256;72472;-56
2023/09/24 02:56:07;;;;;;;4.60;3.60;;;;;;;7.89;93.71;101253.73;105576;1253;69204;-57
2023/09/24 02:58:35;;;;;;;5.60;3.10;;;;;;;7.92;93.53;101258.75;105612;1256;69212;-56
2023/09/24 03:01:12;;;;;;;4.00;3.10;;;;;;;7.90;93.74;101262.25;105579;1254;74833;-57
2023/09/24 03:03:42;;;;;;;3.90;2.80;;;;;;;7.93;94.04;101270.74;105617;1258;82321;-57
2023/09/24 03:06:10;;;;;;;4.30;3.20;;;;;;;7.97;94.34;101275.75;105575;1256;72648;-56
2023/09/24 03:08:39;;;;;;;3.10;2.70;;;;;;;8.00;94.30;101279.36;105572;1256;69137;-56
2023/09/24 03:11:14;;;;;;;6.50;3.00;;;;;;;8.03;94.45;101288.19;105381;1254;69085;-56
2023/09/24 03:13:43;;;;;;;3.50;2.60;;;;;;;8.05;94.38;101283.47;105596;1256;73519;-57
2023/09/24 03:16:12;;;;;;;3.60;3.00;;;;;;;8.03;93.90;101282.63;105478;1257;83662;-57
2023/09/24 03:18:41;;;;;;;3.40;2.80;;;;;;;8.01;94.28;101286.13;105413;1254;72755;-57
2023/09/24 03:21:13;;;;;;;4.20;3.10;;;;;;;8.00;94.13;101289.63;105651;1256;69067;-57
2023/09/24 03:23:41;;;;;;;4.20;2.80;;;;;;;8.01;94.42;101292.58;105456;1258;69164;-57
2023/09/24 03:26:14;;;;;;;4.70;3.10;;;;;;;8.01;94.18;101292.41;105695;1256;72789;-57
2023/09/24 03:28:43;;;;;;;3.40;2.90;;;;;;;7.99;94.34;101292.60;105374;1257;83262;-57
2023/09/24 03:31:13;;;;;;;3.50;2.40;;;;;;;7.96;93.76;101296.13;105625;1256;73003;-57
2023/09/24 03:33:42;;;;;;;4.50;3.00;;;;;;;7.92;93.70;101301.04;105590;1254;69409;-57
2023/09/24 03:36:10;;;;;;;4.10;2.40;;;;;;;7.88;93.49;101302.47;105578;1256;69070;-57
2023/09/24 03:38:39;;;;;;;3.30;2.40;;;;;;;7.85;93.90;101304.23;105345;1258;74637;-57
2023/09/24 03:41:08;;;;;;;3.90;2.60;;;;;;;7.82;93.74;101305.67;105543;1252;83498;-56
2023/09/24 03:43:37;;;;;;;3.80;2.80;;;;;;;7.77;93.52;101307.64;105563;1256;72210;-57
2023/09/24 03:46:06;;;;;;;4.40;3.00;;;;;;;7.73;93.59;101312.90;105565;1254;69194;-57
2023/09/24 03:48:34;;;;;;;3.50;2.40;;;;;;;7.71;93.71;101316.93;105428;1254;69294;-57
2023/09/24 03:51:04;;;;;;;3.60;2.60;;;;;;;7.68;93.81;101320.79;105717;1255;75068;-57
2023/09/24 03:53:32;;;;;;;4.30;2.40;;;;;;;7.67;93.67;101323.94;105559;1256;82663;-57
2023/09/24 03:56:00;;;;;;;4.50;2.60;;;;;;;7.64;93.77;101329.00;105520;1251;71658;-56
2023/09/24 03:58:29;;;;;;;3.60;2.50;;;;;;;7.62;93.93;101327.46;105558;1254;69062;-56
2023/09/24 04:00:58;;;;;;;6.10;3.00;;;;;;;7.59;93.80;101331.14;105548;1254;69062;-56
2023/09/24 04:03:28;;;;;;;3.70;2.20;;;;;;;7.57;93.69;101336.88;105650;1255;74145;-57
2023/09/24 04:05:57;;;;;;;2.70;2.40;;;;;;;7.54;93.65;101334.84;105696;1252;83377;-56
2023/09/24 04:08:25;;;;;;;4.00;2.70;;;;;;;7.52;93.54;101340.43;105555;1255;73521;-56
2023/09/24 04:10:54;;;;;;;2.60;2.30;;;;;;;7.49;93.77;101341.33;105525;1254;69191;-57
2023/09/24 04:13:22;;;;;;;4.80;2.70;;;;;;;7.47;93.94;101343.60;105611;1256;69115;-57
2023/09/24 04:15:52;;;;;;;4.30;2.50;;;;;;;7.48;94.09;101344.47;105553;1255;74868;-56
2023/09/24 04:18:21;;;;;;;3.00;1.90;;;;;;;7.49;94.20;101352.27;105590;1254;81843;-55
2023/09/24 04:20:52;;;;;;;3.70;2.30;;;;;;;7.47;93.70;101352.47;105543;1256;72131;-56
2023/09/24 04:23:20;;;;;;;3.80;2.20;;;;;;;7.43;93.85;101360.67;105593;1254;69054;-57
2023/09/24 04:25:51;;;;;;;4.90;2.20;;;;;;;7.42;93.99;101363.98;105545;1254;69068;-57
2023/09/24 04:28:20;;;;;;;3.50;2.00;;;;;;;7.44;94.33;101364.48;105624;1256;75004;-57
2023/09/24 04:30:49;;;;;;;3.30;2.20;;;;;;;7.45;94.38;101361.88;105629;1252;83343;-56
2023/09/24 04:33:18;;;;;;;2.60;2.00;;;;;;;7.48;94.76;101363.59;105530;1255;73001;-57
2023/09/24 04:35:47;;;;;;;2.90;1.90;;;;;;;7.51;94.61;101368.09;105637;1251;69108;-57
2023/09/24 04:38:17;;;;;;;2.80;1.70;;;;;;;7.46;94.12;101371.42;105747;1256;69126;-57
2023/09/24 04:40:45;;;;;;;3.90;1.80;;;;;;;7.46;94.42;101379.96;105605;1256;73195;-57
2023/09/24 04:43:15;;;;;;;2.70;1.60;;;;;;;7.48;94.53;101383.77;105592;1254;83546;-57
2023/09/24 04:45:44;;;;;;;2.50;1.70;;;;;;;7.46;94.27;101388.30;105733;1255;73476;-57
2023/09/24 04:48:12;;;;;;;2.50;1.50;;;;;;;7.42;94.04;101385.03;105612;1255;69200;-57
2023/09/24 04:50:42;;;;;;;3.10;2.00;;;;;;;7.37;93.70;101387.86;105557;1256;69746;-57
2023/09/24 04:53:10;;;;;;;3.50;1.90;;;;;;;7.32;93.60;101392.59;105600;1257;73871;-56
2023/09/24 04:55:38;;;;;;;4.00;2.10;;;;;;;7.30;93.79;101399.89;105515;1256;83217;-56
2023/09/24 04:58:07;;;;;;;2.50;1.70;;;;;;;7.27;93.96;101403.23;105687;1255;73410;-56
2023/09/24 05:00:35;;;;;;;2.30;1.50;;;;;;;7.25;93.88;101407.94;105574;1254;69188;-57
2023/09/24 05:03:03;;;;;;;2.60;1.50;;;;;;;7.22;93.82;101407.08;105566;1255;69141;-56
2023/09/24 05:05:32;;;;;;;3.80;1.60;;;;;;;7.21;94.00;101404.48;105634;1254;73810;-57
2023/09/24 05:08:03;;;;;;;2.70;2.00;;;;;;;7.20;94.00;101402.05;105647;1256;83304;-57
2023/09/24 05:10:32;;;;;;;;;;;;;;;7.20;94.22;101401.71;105585;1253;71783;-57
2023/09/24 05:13:01;;;;;;;3.70;1.70;;;;;;;7.21;94.47;101401.88;105607;1254;69125;-55
2023/09/24 05:15:29;;;;;;;4.90;1.50;;;;;;;7.22;94.30;101408.32;105576;1257;69083;-57
2023/09/24 05:17:58;;;;;;;5.20;2.10;;;;;;;7.21;94.20;101407.11;105534;1256;75056;-57
2023/09/24 05:20:30;;;;;;;1.90;1.60;;;;;;;7.23;94.55;101409.52;105588;1256;82454;-57
2023/09/24 05:22:58;;;;;;;4.50;1.80;;;;;;;7.26;94.77;101414.54;105599;1256;73011;-57
2023/09/24 05:25:26;;;;;;;2.20;1.80;;;;;;;7.29;94.97;101418.35;105631;1253;69294;-57
2023/09/24 05:27:55;;;;;;;3.70;2.00;;;;;;;7.31;94.94;101419.54;105633;1255;69091;-57
2023/09/24 05:30:24;;;;;;;3.90;1.70;;;;;;;7.35;95.36;101420.03;105655;1256;74941;-57
2023/09/24 05:32:52;;;;;;;2.50;1.90;;;;;;;7.39;94.99;101420.35;105582;1256;83020;-57
2023/09/24 05:35:22;;;;;;;3.40;2.20;;;;;;;7.43;95.44;101425.70;105569;1254;73861;-56
2023/09/24 05:37:51;;;;;;;4.10;2.20;;;;;;;7.47;95.30;101429.86;105587;1254;69164;-55
2023/09/24 05:40:19;;;;;;;3.20;2.20;;;;;;;7.49;95.58;101440.45;105562;1254;69230;-56
2023/09/24 05:42:47;;;;;;;5.10;2.20;;;;;;;7.52;95.61;101448.08;105638;1254;74840;-57
2023/09/24 05:45:15;;;;;;;4.20;2.20;;;;;;;7.58;96.10;101452.91;105528;1254;83692;-57
2023/09/24 05:47:44;;;;;;;2.70;2.10;;;;;;;7.66;96.15;101462.06;105566;1253;73420;-57
2023/09/24 05:50:12;;;;;;;4.00;2.50;;;;;;;7.75;96.58;101461.98;105531;1255;69131;-57
2023/09/24 05:52:40;;;;;;;3.80;2.60;;;;;;;7.84;96.92;101462.42;105546;1255;69275;-57
2023/09/24 05:55:09;;;;;;;3.40;2.60;;;;;;;7.94;97.22;101467.73;105687;1255;74669;-56
2023/09/24 05:57:37;;;;;;;3.30;2.70;;;;;;;8.06;97.39;101468.33;105681;1256;83708;-56
2023/09/24 06:00:08;;;;;;;3.20;2.30;;;;;;;8.19;97.86;101467.31;105563;1254;73422;-57
2023/09/24 06:02:40;;;;;;;3.30;2.30;;;;;;;8.32;98.03;101474.33;105513;1254;69170;-56
2023/09/24 06:05:09;;;;;;;5.20;2.30;;;;;;;8.44;98.21;101476.14;105722;1255;69175;-57
2023/09/24 06:07:38;;;;;;;5.60;2.30;;;;;;;8.57;98.23;101482.96;105602;1257;75020;-57
2023/09/24 06:10:09;;;;;;;3.90;2.70;;;;;;;8.67;98.16;101487.91;105591;1256;81120;-57
2023/09/24 06:12:38;;;;;;;2.70;2.20;;;;;;;8.79;98.36;101491.95;105653;1255;72881;-57
2023/09/24 06:15:10;;;;;;;3.30;2.10;;;;;;;8.89;98.25;101493.21;105588;1257;69185;-57
2023/09/24 06:17:40;;;;;;;3.70;2.60;;;;;;;9.02;98.54;101491.66;105643;1255;69208;-57
2023/09/24 06:20:10;;;;;;;4.90;2.60;;;;;;;9.14;98.45;101494.12;105608;1256;74844;-57
2023/09/24 06:22:40;;;;;;;3.70;2.60;;;;;;;9.26;98.71;101497.95;105365;1254;292642;-57
2023/09/24 06:25:09;;;;;;;4.60;2.80;;;;;;;9.38;98.58;101505.80;105578;1252;72924;-57
2023/09/24 06:27:37;;;;;;;5.70;2.50;;;;;;;9.50;98.84;101504.76;105612;1254;69163;-57
2023/09/24 06:30:10;;;;;;;9.00;2.50;;;;;;;9.60;98.52;101508.97;105558;1256;69175;-55
2023/09/24 06:32:38;;;;;;;3.20;2.30;;;;;;;9.71;98.53;101511.77;105601;1254;74789;-57
2023/09/24 06:35:07;;;;;;;3.10;2.10;;;;;;;9.81;98.57;101515.62;105618;1255;83502;-57
2023/09/24 06:37:36;;;;;;;5.00;2.50;;;;;;;9.93;98.75;101516.13;105743;1254;73672;-57
2023/09/24 06:40:05;;;;;;;3.40;2.30;;;;;;;10.05;98.87;101520.30;105555;1254;69210;-57
2023/09/24 06:42:33;;;;;;;4.20;2.30;;;;;;;10.16;98.83;101525.88;105646;1254;69118;-58
2023/09/24 06:45:01;;;;;;;3.90;2.30;;;;;;;10.29;99.07;101524.98;105571;1256;74788;-57
2023/09/24 06:47:30;;;;;;;3.60;2.40;;;;;;;10.43;99.26;101525.60;105569;1256;83071;-56
2023/09/24 06:49:58;;;;;;;5.30;2.30;;;;;;;10.57;99.26;101528.32;105537;1257;74036;-57
2023/09/24 06:52:30;;;;;;;3.60;2.50;;;;;;;10.70;99.33;101531.19;105527;1254;69184;-58
2023/09/24 06:54:59;;;;;;;3.70;2.80;;;;;;;10.84;99.42;101529.17;105629;1254;69092;-58
2023/09/24 06:57:28;;;;;;;3.10;2.30;;;;;;;10.98;99.43;101533.45;105644;1255;75050;-57
2023/09/24 06:59:56;;;;;;;3.60;2.40;;;;;;;11.09;99.34;101536.17;105368;1253;83356;-57
2023/09/24 07:02:24;;;;;;;4.20;2.60;;;;;;;11.22;99.46;101534.33;105553;1257;73660;-57
2023/09/24 07:04:53;;;;;;;4.10;2.20;;;;;;;11.35;99.32;101535.61;105561;1256;69154;-58
2023/09/24 07:07:22;;;;;;;3.30;2.10;;;;;;;11.48;99.33;101535.70;105600;1255;69182;-57
2023/09/24 07:09:50;;;;;;;4.30;2.40;;;;;;;11.61;99.54;101539.41;105552;1256;75031;-57
2023/09/24 07:12:19;;;;;;;2.80;2.50;;;;;;;11.74;99.51;101536.66;105557;1256;83617;-58
2023/09/24 07:14:47;;;;;;;3.70;1.60;;;;;;;11.88;99.58;101539.16;105646;1256;73958;-57
2023/09/24 07:17:15;;;;;;;7.50;2.20;;;;;;;12.00;99.07;101540.27;105530;1256;69185;-57
2023/09/24 07:19:45;;;;;;;4.10;1.80;;;;;;;12.14;98.53;101546.59;105620;1256;69179;-57
2023/09/24 07:22:14;;;;;;;3.10;1.80;;;;;;;12.26;98.23;101551.70;105622;1257;75029;-57
2023/09/24 07:24:42;;;;;;;3.80;1.90;;;;;;;12.38;97.94;101547.19;105540;1254;83495;-56
2023/09/24 07:27:10;;;;;;;3.50;1.90;;;;;;;12.47;97.54;101552.90;105583;1252;73964;-57
2023/09/24 07:29:41;;;;;;;4.40;2.30;;;;;;;12.56;97.20;101556.52;105549;1254;69684;-57
2023/09/24 07:32:09;;;;;;;;;;;;;;;12.64;96.70;101562.98;105603;1255;69184;-58
2023/09/24 07:34:37;;;;;;;3.40;1.90;;;;;;;12.69;96.35;101558.80;105623;1256;74858;-58
2023/09/24 07:37:08;;;;;;;2.90;2.10;;;;;;;12.75;96.04;101565.30;105593;1255;83080;-57
2023/09/24 07:39:42;;;;;;;5.40;2.00;;;;;;;12.82;95.85;101561.79;105575;1254;73887;-57
2023/09/24 07:42:10;;;;;;;5.20;2.50;;;;;;;12.88;95.72;101560.20;105539;1255;69672;-58
2023/09/24 07:44:39;;;;;;;3.90;2.00;;;;;;;12.94;95.44;101554.08;105620;1256;69108;-57
2023/09/24 07:47:07;;;;;;;5.50;2.00;;;;;;;12.99;95.01;101551.67;105586;1254;74912;-58
2023/09/24 07:49:35;;;;;;;3.30;2.10;;;;;;;13.02;95.00;101554.88;105561;1256;82525;-58
2023/09/24 07:52:04;;;;;;;3.90;1.80;;;;;;;13.10;94.92;101561.69;105356;1254;73871;-58
2023/09/24 07:54:32;;;;;;;4.00;2.30;;;;;;;13.15;94.70;101568.72;105543;1254;69237;-58
2023/09/24 07:57:00;;;;;;;3.00;1.80;;;;;;;13.24;94.75;101567.25;105591;1257;69152;-58
2023/09/24 07:59:29;;;;;;;3.90;1.70;;;;;;;13.31;94.50;101569.52;105655;1256;74182;-57
2023/09/24 08:02:01;;;;;;;4.20;2.20;;;;;;;13.38;94.16;101565.63;105794;1254;82265;-57
2023/09/24 08:04:29;;;;;;;2.40;2.00;;;;;;;13.46;94.11;101575.56;105546;1256;72835;-58
2023/09/24 08:06:58;;;;;;;3.10;1.90;;;;;;;13.55;94.03;101583.39;105529;1251;69182;-58
2023/09/24 08:09:26;;;;;;;3.40;1.70;;;;;;;13.63;93.72;101590.52;105549;1256;69057;-58
2023/09/24 08:11:55;;;;;;;5.30;2.50;;;;;;;13.73;93.87;101589.86;105616;1254;74904;-56
2023/09/24 08:14:24;;;;;;;3.80;2.40;;;;;;;13.83;93.39;101590.95;105614;1254;81666;-58
2023/09/24 08:16:53;;;;;;;4.00;2.50;;;;;;;13.93;93.17;101591.67;105634;1254;73678;-57
2023/09/24 08:19:22;;;;;;;4.70;2.20;;;;;;;14.02;92.80;101588.41;105575;1254;69181;-58
2023/09/24 08:21:50;;;;;;;3.90;2.00;;;;;;;14.11;92.55;101591.30;105595;1256;69175;-58
2023/09/24 08:24:19;;;;;;;2.90;1.80;;;;;;;14.21;92.50;101598.34;105632;1256;75104;-58
2023/09/24 08:26:48;;;;;;;2.80;2.00;;;;;;;14.31;92.31;101600.29;105590;1254;83202;-57
2023/09/24 08:29:16;;;;;;;4.30;2.60;;;;;;;14.44;92.24;101606.20;105596;1255;73731;-58
2023/09/24 08:31:46;;;;;;;3.60;2.10;;;;;;;14.55;92.02;101604.96;105669;1257;69494;-57
2023/09/24 08:34:15;;;;;;;4.90;2.20;;;;;;;14.65;91.47;101607.95;105513;1254;69710;-58
2023/09/24 08:36:43;;;;;;;7.80;2.70;;;;;;;14.75;91.43;101609.37;105594;1257;74829;-58
2023/09/24 08:39:14;;;;;;;5.10;2.50;;;;;;;14.88;91.41;101612.62;105651;1256;83406;-57
2023/09/24 08:41:44;;;;;;;3.50;2.30;;;;;;;15.04;91.34;101615.91;105587;1255;72828;-58
2023/09/24 08:44:17;;;;;;;4.40;2.20;;;;;;;15.18;90.98;101619.61;105576;1257;69057;-58
2023/09/24 08:46:47;;;;;;;3.90;2.40;;;;;;;15.32;90.72;101616.27;105590;1254;69163;-58
2023/09/24 08:49:17;;;;;;;3.70;2.20;;;;;;;15.44;90.18;101615.65;105511;1256;74918;-58
2023/09/24 08:51:46;;;;;;;5.50;2.40;;;;;;;15.55;90.08;101617.35;105443;1259;83187;-58
2023/09/24 08:54:14;;;;;;;2.40;2.10;;;;;;;15.65;89.54;101616.10;105591;1256;72718;-58
2023/09/24 08:56:43;;;;;;;4.90;2.30;;;;;;;15.73;89.28;101614.36;105659;1254;69004;-58
2023/09/24 08:59:11;;;;;;;4.40;2.50;;;;;;;15.87;89.23;101619.66;105592;1255;69112;-58
2023/09/24 09:01:40;;;;;;;4.30;2.40;;;;;;;16.03;89.04;101618.31;105585;1254;74885;-58
2023/09/24 09:04:08;;;;;;;4.00;2.50;;;;;;;16.16;88.68;101619.20;105560;1256;83772;-58
2023/09/24 09:06:37;;;;;;;3.50;2.20;;;;;;;16.28;88.22;101620.27;105578;1256;73646;-58
2023/09/24 09:09:06;;;;;;;7.40;3.20;;;;;;;16.36;87.49;101623.50;105604;1257;69176;-58
2023/09/24 09:11:40;;;;;;;4.60;2.90;;;;;;;16.44;87.16;101622.81;105617;1264;69173;-58
2023/09/24 09:14:09;;;;;;;3.60;2.60;;;;;;;16.50;86.43;101620.77;105612;1257;74739;-58
2023/09/24 09:16:57;;;;;;;5.80;2.80;;;;;;;16.59;86.16;101623.06;105568;1260;83454;-58
2023/09/24 09:19:28;;;;;;;3.60;2.30;;;;;;;16.67;85.72;101622.84;105523;1257;73702;-58
2023/09/24 09:22:14;;;;;;;6.50;2.70;;;;;;;16.81;85.58;101620.73;105717;1254;69318;-58
2023/09/24 09:24:42;;;;;;;5.50;3.10;;;;;;;16.99;85.42;101622.39;105431;1252;69122;-58
2023/09/24 09:27:10;;;;;;;5.90;3.00;;;;;;;17.15;84.91;101626.08;105598;1257;74950;-58
2023/09/24 09:29:38;;;;;;;5.90;3.30;;;;;;;17.27;84.15;101627.50;105611;1254;82410;-58
2023/09/24 09:32:07;;;;;;;6.80;3.30;;;;;;;17.37;83.49;101620.86;105577;1255;73212;-58
2023/09/24 09:34:35;;;;;;;5.80;2.70;;;;;;;17.50;83.22;101620.25;105520;1256;69170;-58
2023/09/24 09:37:17;;;;;;;5.00;3.30;;;;;;;17.63;83.16;101623.90;105635;1255;69070;-55
2023/09/24 09:39:45;;;;;;;7.00;3.10;;;;;;;17.84;83.32;101625.93;105650;1254;74341;-57
2023/09/24 09:42:20;;;;;;;11.00;3.30;;;;;;;18.04;82.78;101628.49;105691;1257;83667;-57
2023/09/24 09:44:50;;;;;;;6.00;2.60;;;;;;;18.32;82.48;101623.76;105626;1254;73826;-56
2023/09/24 09:47:20;;;;;;;4.00;2.90;;;;;;;18.58;81.91;101631.81;105579;1252;69887;-57
2023/09/24 09:49:58;;;;;;;4.60;3.00;;;;;;;18.73;80.60;101633.19;105509;1251;69095;-58
2023/09/24 09:52:36;;;;;;;4.70;2.70;;;;;;;18.77;80.09;101630.86;105846;1255;74993;-58
2023/09/24 09:55:06;;;;;;;4.90;3.00;;;;;;;18.94;79.94;101631.94;105552;1255;82565;-58
2023/09/24 09:57:35;;;;;;;4.80;2.80;;;;;;;19.15;79.65;101637.20;105599;1255;73882;-56
2023/09/24 10:00:09;;;;;;;8.40;3.50;;;;;;;19.26;79.22;101639.64;105605;1253;69172;-57
2023/09/24 10:02:42;;;;;;;4.70;2.90;;;;;;;19.19;77.92;101646.19;105802;1251;68955;-58
2023/09/24 10:05:11;;;;;;;5.60;3.20;;;;;;;19.17;77.58;101644.05;105477;1256;74892;-58
2023/09/24 10:07:40;;;;;;;4.70;2.60;;;;;;;19.31;76.99;101645.94;105512;1257;83177;-57
2023/09/24 10:10:40;;;;;;;5.30;3.00;;;;;;;19.25;76.62;101646.08;105615;1257;72667;-58
2023/09/24 10:13:47;;;;;;;4.80;2.70;;;;;;;19.29;76.32;101649.73;105738;1252;69191;-58
2023/09/24 10:16:25;;;;;;;3.90;2.40;;;;;;;19.54;76.00;101651.42;105576;1256;69094;-56
2023/09/24 10:18:54;;;;;;;5.80;2.80;;;;;;;19.70;75.53;101647.36;105670;1256;74810;-57
2023/09/24 10:21:32;;;;;;;5.10;2.50;;;;;;;19.83;74.99;101652.14;105574;1255;83322;-58
2023/09/24 10:24:25;;;;;;;5.60;2.60;;;;;;;20.02;74.92;101652.36;105535;1257;72927;-56
2023/09/24 10:27:02;;;;;;;5.30;2.20;;;;;;;20.08;74.06;101651.27;105449;1256;69335;-57
2023/09/24 10:29:46;;;;;;;5.00;2.20;;;;;;;19.92;73.51;101655.89;108011;1256;69218;-58
2023/09/24 10:32:17;;;;;;;5.20;2.50;;;;;;;19.66;72.85;101656.44;105760;1251;73605;-58
2023/09/24 10:34:51;;;;;;;4.40;1.90;;;;;;;19.57;72.97;101657.09;105568;1256;83308;-58
2023/09/24 10:37:39;;;;;;;6.10;2.20;;;;;;;19.90;73.06;101652.64;105570;1256;73640;-57
2023/09/24 10:40:13;;;;;;;7.00;2.20;;;;;;;20.48;73.06;101655.01;105678;1252;69078;-56
2023/09/24 10:42:42;;;;;;;4.10;2.10;;;;;;;20.88;72.28;101652.08;105614;1251;69054;-57
2023/09/24 10:45:12;;;;;;;7.50;1.80;;;;;;;21.15;71.66;101651.14;105647;1257;73925;-58
2023/09/24 10:47:42;;;;;;;4.50;1.90;;;;;;;20.97;70.49;101659.75;105638;1258;82937;-58
2023/09/24 10:50:16;;;;;;;5.10;2.10;;;;;;;20.73;70.04;101664.02;105600;1251;72671;-56
2023/09/24 10:53:03;;;;;;;4.40;1.50;;;;;;;20.44;69.30;101659.52;105586;1256;69221;-57
2023/09/24 10:55:45;;;;;;;8.60;1.90;;;;;;;20.13;69.02;101656.51;105744;1255;69210;-57
2023/09/24 10:58:28;;;;;;;2.70;1.70;;;;;;;19.97;69.03;101657.93;105624;1264;73795;-57
2023/09/24 11:00:56;;;;;;;3.30;1.60;;;;;;;20.35;69.67;101657.71;105541;1258;83694;-58
2023/09/24 11:03:25;;;;;;;3.40;1.90;;;;;;;20.85;69.65;101656.35;105614;1256;71857;-58
2023/09/24 11:05:54;;;;;;;4.70;1.90;;;;;;;21.39;69.70;101656.45;105692;1251;69168;-57
2023/09/24 11:08:30;;;;;;;7.10;2.20;;;;;;;21.91;68.87;101655.85;105617;1255;69147;-57
2023/09/24 11:10:59;;;;;;;4.90;2.20;;;;;;;22.16;67.38;101658.29;105685;1255;75021;-57
2023/09/24 11:13:27;;;;;;;4.60;2.00;;;;;;;22.37;67.19;101650.52;105687;1257;83672;-57
2023/09/24 11:15:56;;;;;;;4.10;1.90;;;;;;;22.79;66.65;101653.70;105617;1251;73626;-57
2023/09/24 11:18:27;;;;;;;4.80;2.00;;;;;;;22.88;65.89;101655.42;105603;1257;69173;-57
2023/09/24 11:20:56;;;;;;;5.00;1.90;;;;;;;23.08;65.67;101658.52;105602;1251;69055;-56
2023/09/24 11:23:24;;;;;;;4.80;2.10;;;;;;;23.27;64.93;101661.70;105599;1251;74788;-54
2023/09/24 11:25:52;;;;;;;6.70;2.20;;;;;;;23.06;63.89;101662.44;105623;1256;83341;-56
2023/09/24 11:28:30;;;;;;;4.20;1.80;;;;;;;23.09;63.52;101658.33;105556;1254;73769;-56
2023/09/24 11:30:59;;;;;;;4.00;1.60;;;;;;;22.97;62.88;101659.25;105619;1257;68994;-56
2023/09/24 11:33:27;;;;;;;4.80;1.80;;;;;;;22.96;63.00;101659.50;105624;1255;69124;-57
2023/09/24 11:35:57;;;;;;;3.70;1.70;;;;;;;23.08;62.60;101659.77;105614;1257;73820;-56